sensor_id;sensor_type;location;lat;lon;timestamp;temperature;humidity
51863;DHT22;37900;52.996;6.278;2024-01-15T00:02:11;17.40;74.50
51863;DHT22;37900;52.996;6.278;2024-01-15T00:04:41;17.40;74.50
51863;DHT22;37900;52.996;6.278;2024-01-15T00:07:07;17.40;74.40
51863;DHT22;37900;52.996;6.278;2024-01-15T00:09:33;17.40;74.30
51863;DHT22;37900;52.996;6.278;2024-01-15T00:12:00;17.40;74.30
51863;DHT22;37900;52.996;6.278;2024-01-15T00:14:26;17.40;74.30
51863;DHT22;37900;52.996;6.278;2024-01-15T00:16:52;17.30;74.20
51863;DHT22;37900;52.996;6.278;2024-01-15T00:19:21;17.30;74.20
51863;DHT22;37900;52.996;6.278;2024-01-15T00:21:47;17.30;74.10
51863;DHT22;37900;52.996;6.278;2024-01-15T00:24:13;17.30;74.10
51863;DHT22;37900;52.996;6.278;2024-01-15T00:26:40;17.30;74.00
51863;DHT22;37900;52.996;6.278;2024-01-15T00:29:09;17.30;73.90
51863;DHT22;37900;52.996;6.278;2024-01-15T00:31:35;17.30;74.40
51863;DHT22;37900;52.996;6.278;2024-01-15T00:34:01;17.30;73.80
51863;DHT22;37900;52.996;6.278;2024-01-15T00:36:26;17.30;73.70
51863;DHT22;37900;52.996;6.278;2024-01-15T00:38:53;17.20;73.70
51863;DHT22;37900;52.996;6.278;2024-01-15T00:41:19;17.20;73.60
51863;DHT22;37900;52.996;6.278;2024-01-15T00:43:45;17.20;73.50
51863;DHT22;37900;52.996;6.278;2024-01-15T00:46:11;17.20;73.50
51863;DHT22;37900;52.996;6.278;2024-01-15T00:48:37;17.20;73.40
51863;DHT22;37900;52.996;6.278;2024-01-15T00:51:06;17.20;73.40
51863;DHT22;37900;52.996;6.278;2024-01-15T00:53:31;17.20;73.30
51863;DHT22;37900;52.996;6.278;2024-01-15T00:55:57;17.20;73.30
51863;DHT22;37900;52.996;6.278;2024-01-15T00:58:23;17.20;73.20
51863;DHT22;37900;52.996;6.278;2024-01-15T01:00:49;17.20;73.20
51863;DHT22;37900;52.996;6.278;2024-01-15T01:03:15;17.10;73.10
51863;DHT22;37900;52.996;6.278;2024-01-15T01:05:41;17.20;73.10
51863;DHT22;37900;52.996;6.278;2024-01-15T01:08:06;17.10;73.00
51863;DHT22;37900;52.996;6.278;2024-01-15T01:10:32;17.10;73.00
51863;DHT22;37900;52.996;6.278;2024-01-15T01:12:58;17.10;73.00
51863;DHT22;37900;52.996;6.278;2024-01-15T01:15:23;17.10;72.90
51863;DHT22;37900;52.996;6.278;2024-01-15T01:17:50;17.10;72.90
51863;DHT22;37900;52.996;6.278;2024-01-15T01:20:16;17.10;72.80
51863;DHT22;37900;52.996;6.278;2024-01-15T01:22:41;17.10;72.80
51863;DHT22;37900;52.996;6.278;2024-01-15T01:25:07;17.10;72.80
51863;DHT22;37900;52.996;6.278;2024-01-15T01:27:33;17.10;72.80
51863;DHT22;37900;52.996;6.278;2024-01-15T01:29:59;17.10;72.70
51863;DHT22;37900;52.996;6.278;2024-01-15T01:32:24;17.10;72.60
51863;DHT22;37900;52.996;6.278;2024-01-15T01:34:50;17.00;72.60
51863;DHT22;37900;52.996;6.278;2024-01-15T01:37:16;17.00;72.50
51863;DHT22;37900;52.996;6.278;2024-01-15T01:39:43;17.00;72.50
51863;DHT22;37900;52.996;6.278;2024-01-15T01:42:09;17.00;72.50
51863;DHT22;37900;52.996;6.278;2024-01-15T01:44:34;17.00;72.40
51863;DHT22;37900;52.996;6.278;2024-01-15T01:47:01;17.00;72.40
51863;DHT22;37900;52.996;6.278;2024-01-15T01:49:27;17.00;72.40
51863;DHT22;37900;52.996;6.278;2024-01-15T01:51:57;17.00;72.30
51863;DHT22;37900;52.996;6.278;2024-01-15T01:54:23;17.00;72.30
51863;DHT22;37900;52.996;6.278;2024-01-15T01:56:50;17.00;72.30
51863;DHT22;37900;52.996;6.278;2024-01-15T01:59:17;17.00;72.30
51863;DHT22;37900;52.996;6.278;2024-01-15T02:01:44;16.90;72.10
51863;DHT22;37900;52.996;6.278;2024-01-15T02:04:11;16.90;72.10
51863;DHT22;37900;52.996;6.278;2024-01-15T02:06:37;16.90;72.10
51863;DHT22;37900;52.996;6.278;2024-01-15T02:09:03;16.90;72.10
51863;DHT22;37900;52.996;6.278;2024-01-15T02:11:31;16.90;72.00
51863;DHT22;37900;52.996;6.278;2024-01-15T02:13:57;16.90;72.00
51863;DHT22;37900;52.996;6.278;2024-01-15T02:16:23;16.90;72.00
51863;DHT22;37900;52.996;6.278;2024-01-15T02:18:48;16.90;72.00
51863;DHT22;37900;52.996;6.278;2024-01-15T02:21:15;16.90;71.90
51863;DHT22;37900;52.996;6.278;2024-01-15T02:23:41;16.90;71.90
51863;DHT22;37900;52.996;6.278;2024-01-15T02:26:07;16.90;71.90
51863;DHT22;37900;52.996;6.278;2024-01-15T02:28:34;16.90;71.90
51863;DHT22;37900;52.996;6.278;2024-01-15T02:31:00;16.90;71.80
51863;DHT22;37900;52.996;6.278;2024-01-15T02:33:26;16.80;71.80
51863;DHT22;37900;52.996;6.278;2024-01-15T02:35:51;16.80;71.80
51863;DHT22;37900;52.996;6.278;2024-01-15T02:38:17;16.80;71.70
51863;DHT22;37900;52.996;6.278;2024-01-15T02:40:47;16.80;71.70
51863;DHT22;37900;52.996;6.278;2024-01-15T02:43:12;16.80;71.60
51863;DHT22;37900;52.996;6.278;2024-01-15T02:45:39;16.80;71.60
51863;DHT22;37900;52.996;6.278;2024-01-15T02:48:05;16.80;71.60
51863;DHT22;37900;52.996;6.278;2024-01-15T02:50:31;16.80;71.60
51863;DHT22;37900;52.996;6.278;2024-01-15T02:52:56;16.80;71.60
51863;DHT22;37900;52.996;6.278;2024-01-15T02:55:22;16.80;71.60
51863;DHT22;37900;52.996;6.278;2024-01-15T02:57:48;16.80;71.50
51863;DHT22;37900;52.996;6.278;2024-01-15T03:00:14;16.80;71.50
51863;DHT22;37900;52.996;6.278;2024-01-15T03:02:40;16.80;71.50
51863;DHT22;37900;52.996;6.278;2024-01-15T03:05:07;16.70;71.40
51863;DHT22;37900;52.996;6.278;2024-01-15T03:07:36;16.80;71.40
51863;DHT22;37900;52.996;6.278;2024-01-15T03:10:02;16.70;71.40
51863;DHT22;37900;52.996;6.278;2024-01-15T03:12:28;16.70;71.40
51863;DHT22;37900;52.996;6.278;2024-01-15T03:14:54;16.70;71.40
51863;DHT22;37900;52.996;6.278;2024-01-15T03:17:19;16.70;71.30
51863;DHT22;37900;52.996;6.278;2024-01-15T03:19:45;16.70;71.30
51863;DHT22;37900;52.996;6.278;2024-01-15T03:22:11;16.70;71.30
51863;DHT22;37900;52.996;6.278;2024-01-15T03:24:36;16.70;71.30
51863;DHT22;37900;52.996;6.278;2024-01-15T03:27:03;16.70;71.30
51863;DHT22;37900;52.996;6.278;2024-01-15T03:29:28;16.70;71.30
51863;DHT22;37900;52.996;6.278;2024-01-15T03:31:54;16.70;71.20
51863;DHT22;37900;52.996;6.278;2024-01-15T03:34:20;16.70;71.20
51863;DHT22;37900;52.996;6.278;2024-01-15T03:36:46;16.70;71.20
51863;DHT22;37900;52.996;6.278;2024-01-15T03:39:11;16.70;71.20
51863;DHT22;37900;52.996;6.278;2024-01-15T03:41:37;16.60;71.10
51863;DHT22;37900;52.996;6.278;2024-01-15T03:44:03;16.60;71.10
51863;DHT22;37900;52.996;6.278;2024-01-15T03:46:29;16.60;71.00
51863;DHT22;37900;52.996;6.278;2024-01-15T03:48:54;16.60;71.00
51863;DHT22;37900;52.996;6.278;2024-01-15T03:51:20;16.60;71.00
51863;DHT22;37900;52.996;6.278;2024-01-15T03:53:46;16.60;71.00
51863;DHT22;37900;52.996;6.278;2024-01-15T03:56:12;16.60;71.00
51863;DHT22;37900;52.996;6.278;2024-01-15T03:58:38;16.60;71.00
51863;DHT22;37900;52.996;6.278;2024-01-15T04:01:03;16.60;71.00
51863;DHT22;37900;52.996;6.278;2024-01-15T04:03:32;16.60;70.90
51863;DHT22;37900;52.996;6.278;2024-01-15T04:05:58;16.60;71.00
51863;DHT22;37900;52.996;6.278;2024-01-15T04:08:24;16.60;70.90
51863;DHT22;37900;52.996;6.278;2024-01-15T04:10:49;16.60;70.90
51863;DHT22;37900;52.996;6.278;2024-01-15T04:13:15;16.50;70.80
51863;DHT22;37900;52.996;6.278;2024-01-15T04:15:41;16.50;70.80
51863;DHT22;37900;52.996;6.278;2024-01-15T04:18:06;16.50;70.80
51863;DHT22;37900;52.996;6.278;2024-01-15T04:20:32;16.50;70.80
51863;DHT22;37900;52.996;6.278;2024-01-15T04:22:58;16.50;70.80
51863;DHT22;37900;52.996;6.278;2024-01-15T04:25:23;16.50;70.80
51863;DHT22;37900;52.996;6.278;2024-01-15T04:27:49;16.50;70.70
51863;DHT22;37900;52.996;6.278;2024-01-15T04:30:15;16.50;70.70
51863;DHT22;37900;52.996;6.278;2024-01-15T04:32:41;16.50;70.70
51863;DHT22;37900;52.996;6.278;2024-01-15T04:35:07;16.50;70.70
51863;DHT22;37900;52.996;6.278;2024-01-15T04:37:32;16.50;70.70
51863;DHT22;37900;52.996;6.278;2024-01-15T04:39:58;16.50;70.70
51863;DHT22;37900;52.996;6.278;2024-01-15T04:42:24;16.50;70.70
51863;DHT22;37900;52.996;6.278;2024-01-15T04:44:49;16.50;70.60
51863;DHT22;37900;52.996;6.278;2024-01-15T04:47:15;16.50;70.60
51863;DHT22;37900;52.996;6.278;2024-01-15T04:49:42;16.50;70.60
51863;DHT22;37900;52.996;6.278;2024-01-15T04:52:07;16.50;70.60
51863;DHT22;37900;52.996;6.278;2024-01-15T04:54:36;16.40;70.50
51863;DHT22;37900;52.996;6.278;2024-01-15T04:57:02;16.40;70.50
51863;DHT22;37900;52.996;6.278;2024-01-15T04:59:28;16.40;70.50
51863;DHT22;37900;52.996;6.278;2024-01-15T05:01:55;16.40;70.50
51863;DHT22;37900;52.996;6.278;2024-01-15T05:04:21;16.40;70.40
51863;DHT22;37900;52.996;6.278;2024-01-15T05:06:47;16.40;70.50
51863;DHT22;37900;52.996;6.278;2024-01-15T05:09:12;16.50;70.50
51863;DHT22;37900;52.996;6.278;2024-01-15T05:11:41;16.40;70.50
51863;DHT22;37900;52.996;6.278;2024-01-15T05:14:06;16.40;70.40
51863;DHT22;37900;52.996;6.278;2024-01-15T05:16:32;16.40;70.40
51863;DHT22;37900;52.996;6.278;2024-01-15T05:18:58;16.40;70.40
51863;DHT22;37900;52.996;6.278;2024-01-15T05:21:23;16.40;70.40
51863;DHT22;37900;52.996;6.278;2024-01-15T05:23:49;16.30;70.30
51863;DHT22;37900;52.996;6.278;2024-01-15T05:26:15;16.30;70.30
51863;DHT22;37900;52.996;6.278;2024-01-15T05:28:43;16.30;70.30
51863;DHT22;37900;52.996;6.278;2024-01-15T05:31:09;16.30;70.30
51863;DHT22;37900;52.996;6.278;2024-01-15T05:33:36;16.30;70.30
51863;DHT22;37900;52.996;6.278;2024-01-15T05:36:02;16.30;70.30
51863;DHT22;37900;52.996;6.278;2024-01-15T05:38:28;16.30;70.30
51863;DHT22;37900;52.996;6.278;2024-01-15T05:40:54;16.30;70.20
51863;DHT22;37900;52.996;6.278;2024-01-15T05:43:19;16.30;70.20
51863;DHT22;37900;52.996;6.278;2024-01-15T05:45:45;16.30;70.20
51863;DHT22;37900;52.996;6.278;2024-01-15T05:48:11;16.30;70.30
51863;DHT22;37900;52.996;6.278;2024-01-15T05:50:38;16.30;70.20
51863;DHT22;37900;52.996;6.278;2024-01-15T05:53:04;16.30;70.20
51863;DHT22;37900;52.996;6.278;2024-01-15T05:55:30;16.30;70.20
51863;DHT22;37900;52.996;6.278;2024-01-15T05:57:56;16.20;70.10
51863;DHT22;37900;52.996;6.278;2024-01-15T06:00:21;16.20;70.10
51863;DHT22;37900;52.996;6.278;2024-01-15T06:02:47;16.20;70.10
51863;DHT22;37900;52.996;6.278;2024-01-15T06:05:14;16.20;70.10
51863;DHT22;37900;52.996;6.278;2024-01-15T06:07:41;16.20;70.10
51863;DHT22;37900;52.996;6.278;2024-01-15T06:10:07;16.20;70.10
51863;DHT22;37900;52.996;6.278;2024-01-15T06:12:33;16.20;70.00
51863;DHT22;37900;52.996;6.278;2024-01-15T06:14:59;16.20;70.10
51863;DHT22;37900;52.996;6.278;2024-01-15T06:17:25;16.20;70.00
51863;DHT22;37900;52.996;6.278;2024-01-15T06:19:50;16.20;70.00
51863;DHT22;37900;52.996;6.278;2024-01-15T06:22:17;16.20;70.00
51863;DHT22;37900;52.996;6.278;2024-01-15T06:24:43;16.20;70.00
51863;DHT22;37900;52.996;6.278;2024-01-15T06:27:08;16.20;70.00
51863;DHT22;37900;52.996;6.278;2024-01-15T06:29:37;16.20;70.00
51863;DHT22;37900;52.996;6.278;2024-01-15T06:32:04;16.10;69.90
51863;DHT22;37900;52.996;6.278;2024-01-15T06:34:30;16.20;70.00
51863;DHT22;37900;52.996;6.278;2024-01-15T06:36:55;16.10;69.90
51863;DHT22;37900;52.996;6.278;2024-01-15T06:39:21;16.10;69.90
51863;DHT22;37900;52.996;6.278;2024-01-15T06:41:46;16.10;69.90
51863;DHT22;37900;52.996;6.278;2024-01-15T06:44:13;16.10;69.90
51863;DHT22;37900;52.996;6.278;2024-01-15T06:46:47;16.10;69.90
51863;DHT22;37900;52.996;6.278;2024-01-15T06:49:13;16.10;69.90
51863;DHT22;37900;52.996;6.278;2024-01-15T06:51:39;16.10;69.90
51863;DHT22;37900;52.996;6.278;2024-01-15T06:54:05;16.10;69.90
51863;DHT22;37900;52.996;6.278;2024-01-15T06:56:34;16.10;69.80
51863;DHT22;37900;52.996;6.278;2024-01-15T06:59:00;16.10;69.80
51863;DHT22;37900;52.996;6.278;2024-01-15T07:01:25;16.10;69.80
51863;DHT22;37900;52.996;6.278;2024-01-15T07:03:51;16.10;69.80
51863;DHT22;37900;52.996;6.278;2024-01-15T07:06:17;16.10;69.90
51863;DHT22;37900;52.996;6.278;2024-01-15T07:08:43;16.10;69.90
51863;DHT22;37900;52.996;6.278;2024-01-15T07:11:09;16.10;70.00
51863;DHT22;37900;52.996;6.278;2024-01-15T07:13:36;16.10;69.90
51863;DHT22;37900;52.996;6.278;2024-01-15T07:16:03;16.10;69.90
51863;DHT22;37900;52.996;6.278;2024-01-15T07:18:29;16.20;70.00
51863;DHT22;37900;52.996;6.278;2024-01-15T07:20:55;16.20;69.90
51863;DHT22;37900;52.996;6.278;2024-01-15T07:23:20;16.20;69.90
51863;DHT22;37900;52.996;6.278;2024-01-15T07:25:46;16.20;69.90
51863;DHT22;37900;52.996;6.278;2024-01-15T07:28:12;16.20;70.50
51863;DHT22;37900;52.996;6.278;2024-01-15T07:30:37;16.20;69.80
51863;DHT22;37900;52.996;6.278;2024-01-15T07:33:05;16.20;69.80
51863;DHT22;37900;52.996;6.278;2024-01-15T07:35:31;16.10;70.30
51863;DHT22;37900;52.996;6.278;2024-01-15T07:37:57;16.10;69.70
51863;DHT22;37900;52.996;6.278;2024-01-15T07:40:22;16.10;69.70
51863;DHT22;37900;52.996;6.278;2024-01-15T07:42:48;16.10;69.70
51863;DHT22;37900;52.996;6.278;2024-01-15T07:45:14;16.10;69.70
51863;DHT22;37900;52.996;6.278;2024-01-15T07:47:39;16.10;69.70
51863;DHT22;37900;52.996;6.278;2024-01-15T07:50:05;16.00;69.60
51863;DHT22;37900;52.996;6.278;2024-01-15T07:52:31;16.10;69.70
51863;DHT22;37900;52.996;6.278;2024-01-15T07:54:57;16.00;69.60
51863;DHT22;37900;52.996;6.278;2024-01-15T07:57:25;16.00;69.60
51863;DHT22;37900;52.996;6.278;2024-01-15T07:59:50;16.00;69.60
51863;DHT22;37900;52.996;6.278;2024-01-15T08:02:17;16.00;69.60
51863;DHT22;37900;52.996;6.278;2024-01-15T08:04:42;16.00;69.60
51863;DHT22;37900;52.996;6.278;2024-01-15T08:07:08;16.00;69.70
51863;DHT22;37900;52.996;6.278;2024-01-15T08:09:34;16.00;69.70
51863;DHT22;37900;52.996;6.278;2024-01-15T08:12:00;16.00;69.70
51863;DHT22;37900;52.996;6.278;2024-01-15T08:14:26;16.10;69.70
51863;DHT22;37900;52.996;6.278;2024-01-15T08:16:51;16.10;69.90
51863;DHT22;37900;52.996;6.278;2024-01-15T08:19:17;16.10;70.10
51863;DHT22;37900;52.996;6.278;2024-01-15T08:21:43;16.10;70.50
51863;DHT22;37900;52.996;6.278;2024-01-15T08:24:09;16.10;70.80
51863;DHT22;37900;52.996;6.278;2024-01-15T08:26:34;16.10;70.90
51863;DHT22;37900;52.996;6.278;2024-01-15T08:29:00;16.10;71.20
51863;DHT22;37900;52.996;6.278;2024-01-15T08:31:26;16.20;71.50
51863;DHT22;37900;52.996;6.278;2024-01-15T08:33:53;16.20;71.70
51863;DHT22;37900;52.996;6.278;2024-01-15T08:36:18;16.20;71.80
51863;DHT22;37900;52.996;6.278;2024-01-15T08:38:44;16.20;72.00
51863;DHT22;37900;52.996;6.278;2024-01-15T08:41:10;16.20;71.90
51863;DHT22;37900;52.996;6.278;2024-01-15T08:43:36;16.20;72.00
51863;DHT22;37900;52.996;6.278;2024-01-15T08:46:02;16.30;72.00
51863;DHT22;37900;52.996;6.278;2024-01-15T08:48:29;16.30;72.00
51863;DHT22;37900;52.996;6.278;2024-01-15T08:50:55;16.30;72.00
51863;DHT22;37900;52.996;6.278;2024-01-15T08:53:21;16.30;72.00
51863;DHT22;37900;52.996;6.278;2024-01-15T08:55:47;16.30;72.00
51863;DHT22;37900;52.996;6.278;2024-01-15T08:58:13;16.30;72.00
51863;DHT22;37900;52.996;6.278;2024-01-15T09:00:39;16.30;72.20
51863;DHT22;37900;52.996;6.278;2024-01-15T09:03:05;16.30;72.20
51863;DHT22;37900;52.996;6.278;2024-01-15T09:05:31;16.30;72.30
51863;DHT22;37900;52.996;6.278;2024-01-15T09:07:57;16.40;72.30
51863;DHT22;37900;52.996;6.278;2024-01-15T09:10:23;16.40;72.30
51863;DHT22;37900;52.996;6.278;2024-01-15T09:12:49;16.40;72.40
51863;DHT22;37900;52.996;6.278;2024-01-15T09:15:15;16.40;72.40
51863;DHT22;37900;52.996;6.278;2024-01-15T09:17:41;16.40;72.50
51863;DHT22;37900;52.996;6.278;2024-01-15T09:20:08;16.50;72.50
51863;DHT22;37900;52.996;6.278;2024-01-15T09:22:37;16.50;72.50
51863;DHT22;37900;52.996;6.278;2024-01-15T09:25:03;16.50;72.50
51863;DHT22;37900;52.996;6.278;2024-01-15T09:27:29;16.50;72.60
51863;DHT22;37900;52.996;6.278;2024-01-15T09:29:55;16.50;72.70
51863;DHT22;37900;52.996;6.278;2024-01-15T09:32:21;16.60;72.70
51863;DHT22;37900;52.996;6.278;2024-01-15T09:34:46;16.60;72.70
51863;DHT22;37900;52.996;6.278;2024-01-15T09:37:14;16.60;72.70
51863;DHT22;37900;52.996;6.278;2024-01-15T09:39:40;16.60;72.80
51863;DHT22;37900;52.996;6.278;2024-01-15T09:42:06;16.60;73.00
51863;DHT22;37900;52.996;6.278;2024-01-15T09:44:32;16.60;72.80
51863;DHT22;37900;52.996;6.278;2024-01-15T09:46:59;16.70;72.90
51863;DHT22;37900;52.996;6.278;2024-01-15T09:49:25;16.70;73.00
51863;DHT22;37900;52.996;6.278;2024-01-15T09:51:51;16.70;73.00
51863;DHT22;37900;52.996;6.278;2024-01-15T09:54:16;16.80;73.10
51863;DHT22;37900;52.996;6.278;2024-01-15T09:56:46;16.80;73.10
51863;DHT22;37900;52.996;6.278;2024-01-15T09:59:22;16.80;73.10
51863;DHT22;37900;52.996;6.278;2024-01-15T10:01:50;16.80;73.10
51863;DHT22;37900;52.996;6.278;2024-01-15T10:04:16;16.90;73.30
51863;DHT22;37900;52.996;6.278;2024-01-15T10:06:45;16.90;73.30
51863;DHT22;37900;52.996;6.278;2024-01-15T10:09:12;16.90;73.30
51863;DHT22;37900;52.996;6.278;2024-01-15T10:11:41;17.00;73.40
51863;DHT22;37900;52.996;6.278;2024-01-15T10:14:11;17.00;73.40
51863;DHT22;37900;52.996;6.278;2024-01-15T10:16:41;17.00;73.50
51863;DHT22;37900;52.996;6.278;2024-01-15T10:19:08;17.00;73.50
51863;DHT22;37900;52.996;6.278;2024-01-15T10:21:34;17.10;73.70
51863;DHT22;37900;52.996;6.278;2024-01-15T10:24:04;17.10;73.70
51863;DHT22;37900;52.996;6.278;2024-01-15T10:26:31;17.10;73.70
51863;DHT22;37900;52.996;6.278;2024-01-15T10:28:58;17.10;73.80
51863;DHT22;37900;52.996;6.278;2024-01-15T10:31:24;17.20;73.90
51863;DHT22;37900;52.996;6.278;2024-01-15T10:33:50;17.20;73.90
51863;DHT22;37900;52.996;6.278;2024-01-15T10:36:17;17.20;73.90
51863;DHT22;37900;52.996;6.278;2024-01-15T10:38:46;17.20;73.90
51863;DHT22;37900;52.996;6.278;2024-01-15T10:41:12;17.30;74.10
51863;DHT22;37900;52.996;6.278;2024-01-15T10:43:38;17.30;74.20
51863;DHT22;37900;52.996;6.278;2024-01-15T10:46:07;17.40;74.30
51863;DHT22;37900;52.996;6.278;2024-01-15T10:48:33;17.40;74.30
51863;DHT22;37900;52.996;6.278;2024-01-15T10:51:01;17.40;74.30
51863;DHT22;37900;52.996;6.278;2024-01-15T10:53:35;17.40;74.30
51863;DHT22;37900;52.996;6.278;2024-01-15T10:56:01;17.40;74.30
51863;DHT22;37900;52.996;6.278;2024-01-15T10:58:31;17.50;74.40
51863;DHT22;37900;52.996;6.278;2024-01-15T11:00:59;17.50;74.40
51863;DHT22;37900;52.996;6.278;2024-01-15T11:03:25;17.50;74.50
51863;DHT22;37900;52.996;6.278;2024-01-15T11:05:53;17.50;74.50
51863;DHT22;37900;52.996;6.278;2024-01-15T11:08:20;17.60;74.50
51863;DHT22;37900;52.996;6.278;2024-01-15T11:10:50;17.60;74.50
51863;DHT22;37900;52.996;6.278;2024-01-15T11:16:04;17.60;74.60
51863;DHT22;37900;52.996;6.278;2024-01-15T11:18:42;17.60;74.70
51863;DHT22;37900;52.996;6.278;2024-01-15T11:23:57;17.70;74.80
51863;DHT22;37900;52.996;6.278;2024-01-15T11:29:00;17.70;74.80
51863;DHT22;37900;52.996;6.278;2024-01-15T11:34:08;17.70;74.90
51863;DHT22;37900;52.996;6.278;2024-01-15T11:41:59;17.80;75.20
51863;DHT22;37900;52.996;6.278;2024-01-15T11:44:26;17.80;75.00
51863;DHT22;37900;52.996;6.278;2024-01-15T11:47:12;17.80;75.00
51863;DHT22;37900;52.996;6.278;2024-01-15T11:52:22;17.80;75.20
51863;DHT22;37900;52.996;6.278;2024-01-15T11:57:42;17.90;75.30
51863;DHT22;37900;52.996;6.278;2024-01-15T12:00:11;17.90;75.50
51863;DHT22;37900;52.996;6.278;2024-01-15T12:02:45;17.90;75.50
51863;DHT22;37900;52.996;6.278;2024-01-15T12:05:13;17.90;75.60
51863;DHT22;37900;52.996;6.278;2024-01-15T12:07:43;17.90;75.60
51863;DHT22;37900;52.996;6.278;2024-01-15T12:10:13;17.90;75.50
51863;DHT22;37900;52.996;6.278;2024-01-15T12:13:05;17.90;75.50
51863;DHT22;37900;52.996;6.278;2024-01-15T12:15:35;18.00;75.60
51863;DHT22;37900;52.996;6.278;2024-01-15T12:18:02;18.00;75.60
51863;DHT22;37900;52.996;6.278;2024-01-15T12:20:29;18.00;75.60
51863;DHT22;37900;52.996;6.278;2024-01-15T12:22:55;18.00;75.60
51863;DHT22;37900;52.996;6.278;2024-01-15T12:25:24;18.00;75.60
51863;DHT22;37900;52.996;6.278;2024-01-15T12:27:53;18.00;75.50
51863;DHT22;37900;52.996;6.278;2024-01-15T12:30:19;18.00;75.50
51863;DHT22;37900;52.996;6.278;2024-01-15T12:32:45;18.00;75.50
51863;DHT22;37900;52.996;6.278;2024-01-15T12:35:13;18.00;75.50
51863;DHT22;37900;52.996;6.278;2024-01-15T12:37:43;18.00;75.40
51863;DHT22;37900;52.996;6.278;2024-01-15T12:40:10;18.00;75.40
51863;DHT22;37900;52.996;6.278;2024-01-15T12:42:42;18.00;75.40
51863;DHT22;37900;52.996;6.278;2024-01-15T12:45:09;18.00;75.40
51863;DHT22;37900;52.996;6.278;2024-01-15T12:47:42;18.00;75.40
51863;DHT22;37900;52.996;6.278;2024-01-15T12:50:09;18.00;75.50
51863;DHT22;37900;52.996;6.278;2024-01-15T12:52:36;18.00;75.40
51863;DHT22;37900;52.996;6.278;2024-01-15T12:55:06;18.00;75.40
51863;DHT22;37900;52.996;6.278;2024-01-15T12:57:32;18.00;75.50
51863;DHT22;37900;52.996;6.278;2024-01-15T12:59:58;18.00;75.40
51863;DHT22;37900;52.996;6.278;2024-01-15T13:02:24;18.00;75.60
51863;DHT22;37900;52.996;6.278;2024-01-15T13:04:50;18.00;75.70
51863;DHT22;37900;52.996;6.278;2024-01-15T13:07:16;18.00;76.00
51863;DHT22;37900;52.996;6.278;2024-01-15T13:09:42;18.00;76.10
51863;DHT22;37900;52.996;6.278;2024-01-15T13:12:09;18.10;76.20
51863;DHT22;37900;52.996;6.278;2024-01-15T13:14:34;18.10;76.30
51863;DHT22;37900;52.996;6.278;2024-01-15T13:17:02;18.10;76.30
51863;DHT22;37900;52.996;6.278;2024-01-15T13:19:28;18.10;76.40
51863;DHT22;37900;52.996;6.278;2024-01-15T13:21:54;18.10;77.00
51863;DHT22;37900;52.996;6.278;2024-01-15T13:24:21;18.00;76.30
51863;DHT22;37900;52.996;6.278;2024-01-15T13:26:47;18.00;76.30
51863;DHT22;37900;52.996;6.278;2024-01-15T13:29:13;18.00;76.30
51863;DHT22;37900;52.996;6.278;2024-01-15T13:31:39;18.00;76.30
51863;DHT22;37900;52.996;6.278;2024-01-15T13:34:05;18.00;76.20
51863;DHT22;37900;52.996;6.278;2024-01-15T13:36:32;18.00;76.20
51863;DHT22;37900;52.996;6.278;2024-01-15T13:38:58;18.00;76.20
51863;DHT22;37900;52.996;6.278;2024-01-15T13:41:24;18.00;76.30
51863;DHT22;37900;52.996;6.278;2024-01-15T13:43:53;18.00;76.30
51863;DHT22;37900;52.996;6.278;2024-01-15T13:46:23;18.00;76.30
51863;DHT22;37900;52.996;6.278;2024-01-15T13:48:49;18.00;76.30
51863;DHT22;37900;52.996;6.278;2024-01-15T13:51:14;18.00;76.20
51863;DHT22;37900;52.996;6.278;2024-01-15T13:53:41;17.90;76.10
51863;DHT22;37900;52.996;6.278;2024-01-15T13:56:07;17.90;76.10
51863;DHT22;37900;52.996;6.278;2024-01-15T13:58:33;18.00;76.10
51863;DHT22;37900;52.996;6.278;2024-01-15T14:01:00;18.00;76.10
51863;DHT22;37900;52.996;6.278;2024-01-15T14:03:25;17.90;76.10
51863;DHT22;37900;52.996;6.278;2024-01-15T14:05:52;17.90;76.00
51863;DHT22;37900;52.996;6.278;2024-01-15T14:08:18;17.90;76.00
51863;DHT22;37900;52.996;6.278;2024-01-15T14:10:44;17.90;76.00
51863;DHT22;37900;52.996;6.278;2024-01-15T14:13:10;17.90;76.00
51863;DHT22;37900;52.996;6.278;2024-01-15T14:15:36;17.90;76.00
51863;DHT22;37900;52.996;6.278;2024-01-15T14:18:02;17.90;76.00
51863;DHT22;37900;52.996;6.278;2024-01-15T14:20:28;18.00;76.10
51863;DHT22;37900;52.996;6.278;2024-01-15T14:22:54;17.90;76.10
51863;DHT22;37900;52.996;6.278;2024-01-15T14:25:23;17.90;76.10
51863;DHT22;37900;52.996;6.278;2024-01-15T14:27:50;17.90;76.20
51863;DHT22;37900;52.996;6.278;2024-01-15T14:30:16;17.90;76.20
51863;DHT22;37900;52.996;6.278;2024-01-15T14:32:45;17.90;76.20
51863;DHT22;37900;52.996;6.278;2024-01-15T14:35:11;17.90;76.20
51863;DHT22;37900;52.996;6.278;2024-01-15T14:37:39;18.00;76.30
51863;DHT22;37900;52.996;6.278;2024-01-15T14:40:06;17.90;76.20
51863;DHT22;37900;52.996;6.278;2024-01-15T14:42:36;17.90;76.30
51863;DHT22;37900;52.996;6.278;2024-01-15T14:45:03;17.90;76.30
51863;DHT22;37900;52.996;6.278;2024-01-15T14:47:31;17.90;76.30
51863;DHT22;37900;52.996;6.278;2024-01-15T14:49:57;17.90;76.30
51863;DHT22;37900;52.996;6.278;2024-01-15T14:52:23;17.90;76.30
51863;DHT22;37900;52.996;6.278;2024-01-15T14:54:49;18.00;76.40
51863;DHT22;37900;52.996;6.278;2024-01-15T14:57:15;17.90;76.30
51863;DHT22;37900;52.996;6.278;2024-01-15T14:59:40;17.90;76.30
51863;DHT22;37900;52.996;6.278;2024-01-15T15:02:07;17.90;76.30
51863;DHT22;37900;52.996;6.278;2024-01-15T15:04:33;17.90;76.20
51863;DHT22;37900;52.996;6.278;2024-01-15T15:06:58;17.90;76.20
51863;DHT22;37900;52.996;6.278;2024-01-15T15:09:24;17.90;76.10
51863;DHT22;37900;52.996;6.278;2024-01-15T15:11:50;17.90;76.10
51863;DHT22;37900;52.996;6.278;2024-01-15T15:14:17;18.00;76.20
51863;DHT22;37900;52.996;6.278;2024-01-15T15:16:43;17.90;76.30
51863;DHT22;37900;52.996;6.278;2024-01-15T15:19:08;17.90;76.30
51863;DHT22;37900;52.996;6.278;2024-01-15T15:21:34;17.90;76.30
51863;DHT22;37900;52.996;6.278;2024-01-15T15:24:00;17.90;76.30
51863;DHT22;37900;52.996;6.278;2024-01-15T15:26:25;17.90;76.40
51863;DHT22;37900;52.996;6.278;2024-01-15T15:28:51;17.90;76.40
51863;DHT22;37900;52.996;6.278;2024-01-15T15:31:17;17.90;76.40
51863;DHT22;37900;52.996;6.278;2024-01-15T15:33:43;17.90;76.40
51863;DHT22;37900;52.996;6.278;2024-01-15T15:36:10;17.90;76.30
51863;DHT22;37900;52.996;6.278;2024-01-15T15:38:35;17.90;76.40
51863;DHT22;37900;52.996;6.278;2024-01-15T15:41:01;17.90;76.30
51863;DHT22;37900;52.996;6.278;2024-01-15T15:43:28;17.90;76.40
51863;DHT22;37900;52.996;6.278;2024-01-15T15:45:54;17.90;76.40
51863;DHT22;37900;52.996;6.278;2024-01-15T15:48:20;17.90;76.40